Time;durP1;ratioP1;P1;durP2;ratioP2;P2;SDS_P1;SDS_P2;PMS_P1;PMS_P2;Temp;Humidity;BMP_temperature;BMP_pressure;BME280_temperature;BME280_humidity;BME280_pressure;Samples;Min_cycle;Max_cycle;Signal;HPM_P1;HPM_P2
2023/12/21 00:02:20;;;;;;;11.55;10.23;;;;;;;19.94;38.26;100884.66;4629088;31;20063;-66
2023/12/21 00:04:49;;;;;;;12.50;10.68;;;;;;;19.94;38.10;100881.97;4629375;31;20056;-66
2023/12/21 00:07:16;;;;;;;14.40;11.23;;;;;;;19.92;37.90;100881.25;4626608;31;20059;-66
2023/12/21 00:09:44;;;;;;;11.98;9.73;;;;;;;19.91;37.94;100882.25;4629211;31;20062;-66
2023/12/21 00:12:11;;;;;;;11.20;9.73;;;;;;;19.90;37.79;100883.25;4628973;31;20126;-65
2023/12/21 00:14:38;;;;;;;12.38;10.20;;;;;;;19.91;38.12;100881.41;4628967;31;20531;-66
2023/12/21 00:17:06;;;;;;;12.38;10.73;;;;;;;19.90;38.18;100875.19;4628732;31;20404;-59
2023/12/21 00:19:33;;;;;;;11.82;9.90;;;;;;;19.89;38.41;100868.09;4629366;31;20047;-60
2023/12/21 00:22:01;;;;;;;10.95;9.82;;;;;;;19.90;38.40;100866.28;4629141;31;20411;-59
2023/12/21 00:24:28;;;;;;;11.80;10.15;;;;;;;19.89;38.35;100860.06;4628936;31;20059;-59
2023/12/21 00:26:56;;;;;;;11.85;10.13;;;;;;;19.88;38.25;100854.78;4616667;31;20506;-66
2023/12/21 00:29:23;;;;;;;12.50;9.57;;;;;;;19.88;38.19;100852.09;4629099;31;20051;-65
2023/12/21 00:31:50;;;;;;;13.18;10.32;;;;;;;19.86;38.05;100851.41;4628966;31;20063;-65
2023/12/21 00:34:17;;;;;;;10.77;9.70;;;;;;;19.86;37.94;100857.63;4628973;31;20055;-65
2023/12/21 00:36:47;;;;;;;12.32;10.40;;;;;;;19.84;38.05;100856.88;4623672;31;20452;-59
2023/12/21 00:39:14;;;;;;;10.65;9.40;;;;;;;19.83;38.06;100857.88;4628894;31;20519;-59
2023/12/21 00:41:41;;;;;;;9.77;8.80;;;;;;;19.83;38.26;100865.09;4629077;31;20496;-59
2023/12/21 00:44:09;;;;;;;11.68;9.95;;;;;;;19.82;38.17;100863.41;4631133;31;20081;-59
2023/12/21 00:46:36;;;;;;;12.15;10.30;;;;;;;19.81;38.18;100867.94;4627543;31;20063;-59
2023/12/21 00:49:03;;;;;;;9.57;8.55;;;;;;;19.81;38.28;100861.69;4632397;31;20052;-60
2023/12/21 00:51:31;;;;;;;12.80;10.35;;;;;;;19.80;38.06;100852.78;4632465;31;20544;-59
2023/12/21 00:53:59;;;;;;;9.85;8.80;;;;;;;19.80;38.09;100854.63;4632467;31;20055;-59
2023/12/21 00:56:26;;;;;;;10.65;9.32;;;;;;;19.78;38.04;100859.28;4627704;31;20056;-59
2023/12/21 00:58:59;;;;;;;12.10;9.65;;;;;;;19.76;38.23;100841.44;4632164;31;20055;-59
2023/12/21 01:01:26;;;;;;;13.13;10.15;;;;;;;19.75;38.07;100842.44;4632066;31;20062;-59
2023/12/21 01:03:54;;;;;;;14.73;9.55;;;;;;;19.76;38.17;100854.03;4631688;31;20061;-60
2023/12/21 01:06:21;;;;;;;12.18;9.25;;;;;;;19.75;38.14;100853.19;4629862;31;20060;-65
2023/12/21 01:08:49;;;;;;;11.80;9.98;;;;;;;19.75;37.97;100853.19;4632065;31;20059;-66
2023/12/21 01:11:16;;;;;;;12.45;10.15;;;;;;;19.74;38.18;100846.13;4632121;31;20210;-65
2023/12/21 01:13:43;;;;;;;12.20;10.43;;;;;;;19.73;38.36;100841.75;4631592;31;20082;-66
2023/12/21 01:16:13;;;;;;;14.60;9.93;;;;;;;19.72;38.16;100847.22;4629839;31;20086;-65
2023/12/21 01:18:41;;;;;;;11.07;9.60;;;;;;;19.73;38.21;100849.78;4625096;31;20081;-66
2023/12/21 01:21:09;;;;;;;10.65;9.32;;;;;;;19.72;38.03;100864.19;4631921;31;20058;-66
2023/12/21 01:23:36;;;;;;;11.60;9.15;;;;;;;19.72;38.01;100869.56;4630996;31;20059;-66
2023/12/21 01:26:04;;;;;;;10.38;9.07;;;;;;;19.73;38.02;100889.25;4629886;31;20060;-64
2023/12/21 01:28:31;;;;;;;12.73;9.45;;;;;;;19.71;37.85;100899.25;4632197;31;20492;-66
2023/12/21 01:30:58;;;;;;;11.25;9.63;;;;;;;19.71;38.04;100915.38;4631998;31;20060;-66
2023/12/21 01:33:26;;;;;;;11.00;8.85;;;;;;;19.71;38.02;100936.84;4631060;31;20059;-66
2023/12/21 01:35:53;;;;;;;12.90;9.27;;;;;;;19.70;37.88;100929.78;4629865;31;20058;-66
2023/12/21 01:38:21;;;;;;;10.63;8.63;;;;;;;19.69;37.99;100923.56;4632086;31;20059;-66
2023/12/21 01:40:48;;;;;;;10.95;8.43;;;;;;;19.69;37.92;100917.34;4625909;31;20056;-66
2023/12/21 01:43:16;;;;;;;12.52;9.85;;;;;;;19.69;38.17;100917.34;4631187;31;20140;-66
2023/12/21 01:45:43;;;;;;;9.80;8.80;;;;;;;19.68;38.20;100915.63;4629696;31;20051;-66
2023/12/21 01:48:11;;;;;;;10.07;9.00;;;;;;;19.66;38.09;100913.06;4631757;31;20062;-66
2023/12/21 01:50:38;;;;;;;9.48;7.95;;;;;;;19.67;38.14;100917.47;4631356;31;20063;-66
2023/12/21 01:53:11;;;;;;;10.20;9.10;;;;;;;19.66;38.06;100913.06;4630314;31;20085;-66
2023/12/21 01:55:39;;;;;;;11.30;8.45;;;;;;;19.66;38.00;100922.97;4629126;31;20070;-65
2023/12/21 01:58:08;;;;;;;9.50;8.50;;;;;;;19.65;38.12;100908.69;4631429;31;20405;-66
2023/12/21 02:00:36;;;;;;;10.27;8.88;;;;;;;19.65;38.10;100900.63;4631121;31;20051;-65
2023/12/21 02:03:04;;;;;;;9.93;8.10;;;;;;;19.65;38.25;100908.69;4629701;31;20492;-65
2023/12/21 02:05:32;;;;;;;9.55;8.20;;;;;;;19.64;38.01;100909.66;4630171;31;20420;-65
2023/12/21 02:08:00;;;;;;;9.68;8.13;;;;;;;19.63;38.37;100910.66;4631360;31;20066;-66
2023/12/21 02:10:27;;;;;;;9.65;8.32;;;;;;;19.64;38.22;100917.72;4631384;31;20070;-66
2023/12/21 02:12:56;;;;;;;10.20;8.38;;;;;;;19.63;38.16;100918.72;4629607;31;20062;-66
2023/12/21 02:15:23;;;;;;;10.88;9.38;;;;;;;19.63;38.18;100920.53;4630609;31;20059;-65
2023/12/21 02:17:52;;;;;;;9.65;8.02;;;;;;;19.63;38.24;100921.38;4630931;31;20069;-60
2023/12/21 02:20:21;;;;;;;12.07;8.50;;;;;;;19.62;38.25;100917.00;4630853;31;20531;-59
2023/12/21 02:22:50;;;;;;;9.85;8.15;;;;;;;19.62;38.34;100917.00;4629111;31;20070;-59
2023/12/21 02:25:18;;;;;;;9.15;8.23;;;;;;;19.61;38.16;100903.69;4630280;31;20056;-59
2023/12/21 02:27:49;;;;;;;9.57;8.23;;;;;;;19.60;38.38;100904.66;4630855;31;20070;-60
2023/12/21 02:30:17;;;;;;;10.02;8.73;;;;;;;19.61;38.25;100898.31;4631016;31;20063;-59
2023/12/21 02:32:45;;;;;;;9.40;8.10;;;;;;;19.59;38.22;100879.63;4627851;31;20063;-59
2023/12/21 02:35:14;;;;;;;8.30;7.50;;;;;;;19.60;38.28;100880.47;4630481;31;20063;-59
2023/12/21 02:37:41;;;;;;;9.43;7.68;;;;;;;19.58;38.32;100877.94;4630702;31;20047;-59
2023/12/21 02:40:09;;;;;;;9.52;7.85;;;;;;;19.58;38.44;100867.19;4630304;31;20399;-59
2023/12/21 02:42:37;;;;;;;10.98;8.50;;;;;;;19.58;38.36;100866.34;4630018;31;20067;-59
2023/12/21 02:45:04;;;;;;;8.52;7.40;;;;;;;19.57;38.28;100854.75;4630566;31;20381;-59
2023/12/21 02:47:31;;;;;;;9.95;7.95;;;;;;;19.57;38.46;100860.13;4630337;31;20130;-66
2023/12/21 02:49:59;;;;;;;9.52;7.88;;;;;;;19.57;38.56;100872.69;4630810;31;20075;-66
2023/12/21 02:52:26;;;;;;;7.80;7.00;;;;;;;19.56;38.38;100876.34;4629952;31;20063;-66
2023/12/21 02:54:54;;;;;;;11.30;8.45;;;;;;;19.56;38.61;100874.53;4628715;31;20067;-66
2023/12/21 02:57:21;;;;;;;8.60;7.63;;;;;;;19.55;38.54;100866.59;4626141;31;20130;-66
2023/12/21 02:59:49;;;;;;;7.85;6.88;;;;;;;19.54;38.58;100865.75;4628376;31;20059;-66
2023/12/21 03:02:16;;;;;;;9.82;7.43;;;;;;;19.53;38.51;100861.38;4627230;31;20427;-66
2023/12/21 03:04:44;;;;;;;8.43;7.22;;;;;;;19.53;38.37;100856.00;4630213;31;20059;-66
2023/12/21 03:07:11;;;;;;;9.32;8.18;;;;;;;19.52;38.51;100857.81;4627992;31;20413;-65
2023/12/21 03:09:38;;;;;;;8.85;7.40;;;;;;;19.53;38.53;100845.28;4630295;31;20051;-66
2023/12/21 03:12:06;;;;;;;8.95;6.80;;;;;;;19.51;38.62;100842.69;4627293;31;20056;-66
2023/12/21 03:14:34;;;;;;;8.02;6.88;;;;;;;19.52;38.64;100854.28;4630428;31;20446;-65
2023/12/21 03:17:01;;;;;;;9.20;7.22;;;;;;;19.50;38.50;100857.13;4630354;31;20055;-60
2023/12/21 03:19:28;;;;;;;9.23;7.68;;;;;;;19.50;38.52;100850.91;4629872;31;20059;-59
2023/12/21 03:21:56;;;;;;;7.63;6.78;;;;;;;19.51;38.46;100856.13;4624667;31;20067;-59
2023/12/21 03:24:23;;;;;;;8.45;7.43;;;;;;;19.50;38.43;100854.44;4629981;31;20543;-59
2023/12/21 03:26:51;;;;;;;9.80;7.25;;;;;;;19.50;38.74;100850.91;4630663;31;20063;-59
2023/12/21 03:29:18;;;;;;;8.35;6.70;;;;;;;19.50;38.61;100857.13;4630087;31;20067;-59
2023/12/21 03:31:46;;;;;;;9.32;7.22;;;;;;;19.50;38.58;100854.44;4626903;31;20063;-60
2023/12/21 03:34:13;;;;;;;8.13;6.63;;;;;;;19.49;38.65;100842.00;4630222;31;20527;-59
2023/12/21 03:36:40;;;;;;;8.70;6.78;;;;;;;19.49;38.53;100844.69;4629694;31;20527;-60
2023/12/21 03:39:08;;;;;;;6.93;6.22;;;;;;;19.49;38.74;100844.69;4628789;31;20063;-59
2023/12/21 03:41:35;;;;;;;7.07;6.00;;;;;;;19.48;38.40;100851.00;4626513;31;20071;-59
2023/12/21 03:44:02;;;;;;;8.13;6.13;;;;;;;19.47;38.51;100849.31;4629688;31;20062;-60
2023/12/21 03:46:30;;;;;;;8.00;6.68;;;;;;;19.48;38.70;100850.16;4629753;31;20055;-66
2023/12/21 03:48:57;;;;;;;8.57;6.85;;;;;;;19.48;38.55;100860.91;4629460;31;20059;-66
2023/12/21 03:51:25;;;;;;;7.18;6.45;;;;;;;19.47;38.62;100859.22;4626245;31;20393;-66
2023/12/21 03:53:52;;;;;;;8.60;6.72;;;;;;;19.48;38.58;100868.97;4629517;31;20396;-66
2023/12/21 03:56:19;;;;;;;8.18;6.50;;;;;;;19.46;38.54;100858.38;4629680;31;20063;-66
2023/12/21 03:58:47;;;;;;;6.95;6.25;;;;;;;19.46;38.63;100866.41;4629267;31;20066;-66
2023/12/21 04:01:23;;;;;;;9.52;6.63;;;;;;;19.46;38.76;100865.56;4626484;31;20048;-66
2023/12/21 04:03:50;;;;;;;6.53;5.78;;;;;;;19.44;38.60;100864.84;4629442;31;20063;-65
2023/12/21 04:06:17;;;;;;;7.95;5.72;;;;;;;19.44;38.46;100857.63;4629322;31;20439;-59
2023/12/21 04:08:45;;;;;;;7.15;5.63;;;;;;;19.46;38.67;100865.56;4641133;30;20063;-59
2023/12/21 04:11:13;;;;;;;6.82;6.00;;;;;;;19.43;38.70;100869.34;4624498;31;20051;-60
2023/12/21 04:13:40;;;;;;;8.55;5.88;;;;;;;19.43;38.56;100865.81;4629097;31;20107;-59
2023/12/21 04:16:08;;;;;;;6.82;5.68;;;;;;;19.42;38.75;100866.81;4629253;31;20059;-60
2023/12/21 04:18:35;;;;;;;6.88;5.78;;;;;;;19.42;38.63;100869.50;4626680;31;20066;-59
2023/12/21 04:21:06;;;;;;;6.45;5.22;;;;;;;19.42;38.52;100864.97;4626788;31;20059;-59
2023/12/21 04:23:34;;;;;;;7.93;6.07;;;;;;;19.40;38.51;100858.88;4628973;31;20059;-60
2023/12/21 04:26:02;;;;;;;8.70;6.20;;;;;;;19.41;38.63;100870.50;4629218;31;20064;-66
2023/12/21 04:28:29;;;;;;;7.32;5.38;;;;;;;19.41;38.77;100870.50;4628014;31;20062;-66
2023/12/21 04:30:56;;;;;;;7.50;5.75;;;;;;;19.41;38.72;100870.50;4639273;30;20075;-66
2023/12/21 04:33:24;;;;;;;7.00;5.35;;;;;;;19.40;38.77;100872.31;4628806;31;20059;-59
2023/12/21 04:35:52;;;;;;;7.15;5.80;;;;;;;19.40;38.88;100879.50;4628607;31;20078;-59
2023/12/21 04:38:20;;;;;;;6.93;4.95;;;;;;;19.40;38.70;100879.50;4627793;31;20063;-59
2023/12/21 04:40:47;;;;;;;6.55;5.75;;;;;;;19.39;38.94;100861.69;4626788;31;20060;-59
2023/12/21 04:43:15;;;;;;;7.18;5.15;;;;;;;19.38;39.00;100860.00;4628915;31;20063;-59
2023/12/21 04:45:43;;;;;;;6.60;5.65;;;;;;;19.37;38.90;100869.91;4628860;31;20062;-64
2023/12/21 04:48:10;;;;;;;7.70;5.43;;;;;;;19.40;39.00;100860.72;4627970;31;20062;-59
2023/12/21 04:50:38;;;;;;;6.30;5.00;;;;;;;19.40;38.87;100858.03;4626928;31;20060;-59
2023/12/21 04:53:05;;;;;;;6.75;5.60;;;;;;;19.41;38.57;100857.06;4628775;31;20056;-60
2023/12/21 04:55:33;;;;;;;5.63;4.95;;;;;;;19.43;38.93;100858.63;4628817;31;20082;-59
2023/12/21 04:58:00;;;;;;;6.70;5.32;;;;;;;19.43;38.95;100847.03;4627751;31;20429;-65
2023/12/21 05:00:29;;;;;;;6.40;5.53;;;;;;;19.42;39.04;100850.72;4626781;31;20063;-65
2023/12/21 05:02:57;;;;;;;6.25;5.32;;;;;;;19.42;38.99;100842.66;4628635;31;20056;-65
2023/12/21 05:05:24;;;;;;;5.82;4.57;;;;;;;19.41;39.05;100836.44;4628741;31;20056;-65
2023/12/21 05:07:53;;;;;;;6.22;5.20;;;;;;;19.42;39.10;100839.97;4627813;31;20059;-59
2023/12/21 05:10:20;;;;;;;6.47;4.38;;;;;;;19.43;38.99;100830.94;4627111;31;20110;-59
2023/12/21 05:12:49;;;;;;;5.47;4.53;;;;;;;19.42;39.08;100813.97;4628808;31;20051;-59
2023/12/21 05:15:16;;;;;;;5.78;5.18;;;;;;;19.41;39.12;100812.28;4628741;31;20420;-59
2023/12/21 05:17:43;;;;;;;6.13;5.03;;;;;;;19.43;39.21;100807.59;4639874;30;20063;-58
2023/12/21 05:20:11;;;;;;;6.50;4.80;;;;;;;19.43;38.97;100801.41;4627335;31;20060;-59
2023/12/21 05:22:41;;;;;;;4.80;4.20;;;;;;;19.43;39.04;100804.06;4628640;31;20059;-60
2023/12/21 05:25:09;;;;;;;5.63;4.63;;;;;;;19.44;39.24;100795.03;4627143;31;20067;-60
2023/12/21 05:27:36;;;;;;;5.30;4.20;;;;;;;19.43;39.21;100798.72;4627722;31;20059;-65
2023/12/21 05:30:04;;;;;;;5.68;4.38;;;;;;;19.42;39.24;100791.66;4629323;31;20100;-66
2023/12/21 05:32:32;;;;;;;6.47;4.82;;;;;;;19.42;39.23;100791.66;4631657;31;20059;-66
2023/12/21 05:35:00;;;;;;;6.13;4.68;;;;;;;19.40;39.29;100798.97;4631479;31;20075;-59
2023/12/21 05:37:28;;;;;;;5.68;4.88;;;;;;;19.41;39.22;100798.00;4629659;31;20066;-66
2023/12/21 05:39:55;;;;;;;5.57;4.72;;;;;;;19.40;39.34;100790.91;4630716;31;20071;-65
2023/12/21 05:42:22;;;;;;;5.20;4.20;;;;;;;19.40;39.38;100797.13;4631899;31;20051;-65
2023/12/21 05:44:50;;;;;;;5.38;4.43;;;;;;;19.39;39.43;100797.28;4631327;31;20059;-58
2023/12/21 05:47:17;;;;;;;5.35;4.05;;;;;;;19.38;39.29;100803.63;4629727;31;20051;-59
2023/12/21 05:49:44;;;;;;;5.18;4.18;;;;;;;19.37;39.46;100788.53;4630541;31;20056;-58
2023/12/21 05:52:12;;;;;;;6.32;4.55;;;;;;;19.37;39.14;100799.25;4631622;31;20062;-59
2023/12/21 05:54:40;;;;;;;6.28;4.57;;;;;;;19.36;39.26;100809.13;4631507;31;20067;-59
2023/12/21 05:57:10;;;;;;;5.97;4.55;;;;;;;19.36;39.24;100797.53;4629697;31;20100;-64
2023/12/21 05:59:38;;;;;;;6.40;5.18;;;;;;;19.36;39.19;100797.53;4630839;31;20059;-66
2023/12/21 06:02:05;;;;;;;5.07;4.38;;;;;;;19.36;39.06;100797.53;4630977;31;20059;-66
2023/12/21 06:04:33;;;;;;;6.05;4.72;;;;;;;19.34;39.28;100797.69;4631055;31;20051;-67
2023/12/21 06:07:00;;;;;;;5.20;4.05;;;;;;;19.33;39.26;100787.94;4628991;31;20062;-66
2023/12/21 06:09:28;;;;;;;6.15;4.63;;;;;;;19.33;39.26;100779.88;4630621;31;20071;-66
2023/12/21 06:11:55;;;;;;;7.22;4.63;;;;;;;19.33;39.13;100784.41;4631157;31;20396;-65
2023/12/21 06:14:23;;;;;;;6.10;4.93;;;;;;;19.33;39.33;100787.09;4631232;31;20059;-65
2023/12/21 06:16:50;;;;;;;6.00;4.72;;;;;;;19.32;39.10;100796.09;4628726;31;20395;-59
2023/12/21 06:19:17;;;;;;;6.03;4.75;;;;;;;19.32;39.12;100790.72;4630453;31;20504;-59
2023/12/21 06:21:45;;;;;;;7.63;4.53;;;;;;;19.31;39.17;100797.09;4628607;31;20416;-59
2023/12/21 06:24:12;;;;;;;4.70;4.03;;;;;;;19.32;39.21;100801.47;4628960;31;20063;-60
2023/12/21 06:26:41;;;;;;;5.20;4.38;;;;;;;19.31;39.20;100814.03;4628754;31;20051;-59
2023/12/21 06:29:08;;;;;;;5.10;4.05;;;;;;;19.31;39.24;100813.19;4630300;31;20059;-59
2023/12/21 06:31:36;;;;;;;6.32;4.65;;;;;;;19.29;39.20;100810.66;4630607;31;20055;-60
2023/12/21 06:34:03;;;;;;;6.32;4.60;;;;;;;19.29;39.24;100820.53;4630807;31;20066;-66
2023/12/21 06:36:31;;;;;;;5.43;4.60;;;;;;;19.29;39.25;100825.91;4628511;31;20062;-66
2023/12/21 06:38:59;;;;;;;6.43;4.43;;;;;;;19.30;39.09;100841.03;4630245;31;20519;-66
2023/12/21 06:41:27;;;;;;;5.90;4.35;;;;;;;19.29;39.21;100844.69;4631065;31;20134;-58
2023/12/21 06:43:54;;;;;;;5.43;4.10;;;;;;;19.30;39.14;100854.44;4630437;31;20062;-58
2023/12/21 06:46:22;;;;;;;6.38;4.20;;;;;;;19.30;39.30;100841.03;4628509;31;20063;-65
2023/12/21 06:48:49;;;;;;;5.93;4.53;;;;;;;19.31;39.20;100826.63;4629929;31;20520;-65
2023/12/21 06:51:17;;;;;;;5.78;4.15;;;;;;;19.29;39.29;100818.72;4630281;31;20055;-65
2023/12/21 06:53:44;;;;;;;5.25;4.03;;;;;;;19.29;39.03;100817.84;4630057;31;20420;-65
2023/12/21 06:56:12;;;;;;;5.50;4.20;;;;;;;19.29;39.07;100823.22;4628332;31;20086;-66
2023/12/21 06:58:59;;;;;;;4.85;4.05;;;;;;;19.29;39.18;100828.59;4623938;31;20476;-67
2023/12/21 07:01:27;;;;;;;5.68;4.53;;;;;;;19.30;39.01;100838.34;4630107;31;20420;-66
2023/12/21 07:03:55;;;;;;;5.47;4.30;;;;;;;19.29;39.15;100855.44;4628928;31;20062;-66
2023/12/21 07:06:25;;;;;;;6.57;4.80;;;;;;;19.30;39.18;100849.06;4628886;31;20627;-66
2023/12/21 07:08:52;;;;;;;5.95;4.72;;;;;;;19.28;39.11;100854.56;4630795;31;20076;-67
2023/12/21 07:11:20;;;;;;;6.82;4.47;;;;;;;19.28;39.25;100854.56;4630186;31;20055;-66
2023/12/21 07:13:47;;;;;;;4.90;4.00;;;;;;;19.28;39.10;100862.63;4628886;31;20047;-67
2023/12/21 07:16:15;;;;;;;5.60;4.20;;;;;;;19.28;39.20;100862.63;4629007;31;20059;-66
2023/12/21 07:18:42;;;;;;;4.47;3.75;;;;;;;19.27;39.15;100860.91;4630018;31;20063;-66
2023/12/21 07:21:09;;;;;;;6.78;4.80;;;;;;;19.27;38.98;100859.09;4630123;31;20058;-67
2023/12/21 07:23:37;;;;;;;5.18;4.07;;;;;;;19.26;39.22;100854.69;4628827;31;20047;-66
2023/12/21 07:26:04;;;;;;;5.28;3.90;;;;;;;19.26;39.08;100851.16;4628762;31;20051;-60
2023/12/21 07:28:32;;;;;;;4.38;3.75;;;;;;;19.26;39.14;100857.38;4629881;31;20066;-60
2023/12/21 07:31:00;;;;;;;7.35;4.65;;;;;;;19.26;39.28;100867.28;4629947;31;20495;-58
2023/12/21 07:33:27;;;;;;;7.18;4.18;;;;;;;19.25;39.18;100869.09;4628285;31;20420;-60
2023/12/21 07:35:55;;;;;;;5.32;3.55;;;;;;;19.25;39.26;100865.56;4628722;31;20067;-65
2023/12/21 07:38:23;;;;;;;5.85;4.50;;;;;;;19.24;39.17;100861.16;4629780;31;20082;-66
2023/12/21 07:40:51;;;;;;;5.20;4.10;;;;;;;19.25;39.28;100858.38;4626065;31;20059;-66
2023/12/21 07:43:19;;;;;;;6.47;4.45;;;;;;;19.24;39.27;100858.47;4626427;31;20392;-65
2023/12/21 07:45:47;;;;;;;7.13;4.47;;;;;;;19.25;39.32;100854.84;4628445;31;20064;-66
2023/12/21 07:48:14;;;;;;;5.80;3.78;;;;;;;19.23;39.12;100852.28;4629547;30;20090;-65
2023/12/21 07:50:42;;;;;;;6.90;4.20;;;;;;;19.23;39.23;100841.53;4629177;31;20059;-66
2023/12/21 07:53:09;;;;;;;6.03;4.00;;;;;;;19.23;39.23;100835.31;4626882;31;20059;-66
2023/12/21 07:55:36;;;;;;;5.22;3.88;;;;;;;19.23;39.39;100833.47;4628384;31;20515;-65
2023/12/21 07:58:05;;;;;;;5.78;4.15;;;;;;;19.25;39.27;100822.63;4629294;31;20055;-64
2023/12/21 08:00:33;;;;;;;5.15;4.38;;;;;;;19.27;39.46;100817.97;4618502;31;20063;-63
2023/12/21 08:03:00;;;;;;;6.55;4.32;;;;;;;19.31;39.72;100802.47;4626004;31;20070;-61
2023/12/21 08:05:28;;;;;;;5.70;4.38;;;;;;;19.36;39.27;100802.91;4628766;31;20082;-64
2023/12/21 08:07:55;;;;;;;4.43;3.67;;;;;;;19.41;39.60;100798.84;4628949;31;20059;-66
2023/12/21 08:10:22;;;;;;;4.32;3.92;;;;;;;19.44;39.70;100797.72;4629141;31;20090;-65
2023/12/21 08:12:50;;;;;;;5.70;4.00;;;;;;;19.48;39.59;100802.69;4627086;31;20059;-66
2023/12/21 08:15:17;;;;;;;6.53;4.60;;;;;;;19.50;39.39;100799.88;4628127;31;20051;-65
2023/12/21 08:17:47;;;;;;;6.20;4.57;;;;;;;19.51;39.14;100801.56;4629078;31;20412;-59
2023/12/21 08:20:15;;;;;;;5.53;4.18;;;;;;;19.55;39.10;100815.59;4622838;31;20051;-60
2023/12/21 08:22:44;;;;;;;6.13;4.40;;;;;;;19.55;39.12;100804.84;4628479;31;20059;-61
2023/12/21 08:25:12;;;;;;;7.57;4.07;;;;;;;19.57;39.08;100809.13;4628527;31;20055;-58
2023/12/21 08:27:43;;;;;;;5.60;4.13;;;;;;;19.57;39.15;100794.81;4628927;31;20543;-59
2023/12/21 08:30:11;;;;;;;6.43;4.40;;;;;;;19.58;39.08;100800.06;4629336;31;20492;-61
2023/12/21 08:32:38;;;;;;;6.28;4.32;;;;;;;19.59;38.96;100788.34;4626193;31;20060;-59
2023/12/21 08:35:06;;;;;;;5.15;4.10;;;;;;;19.61;38.93;100781.03;4622526;30;20420;-60
2023/12/21 08:37:34;;;;;;;4.60;3.85;;;;;;;19.62;38.86;100795.31;4628842;31;20515;-59
2023/12/21 08:40:01;;;;;;;6.97;4.03;;;;;;;19.63;38.83;100789.78;4628581;31;20059;-60
2023/12/21 08:42:30;;;;;;;5.95;4.38;;;;;;;19.65;38.73;100777.09;4625674;31;20508;-59
2023/12/21 08:45:02;;;;;;;5.43;4.10;;;;;;;19.67;38.81;100775.13;4629000;31;20055;-60
2023/12/21 08:47:29;;;;;;;8.70;4.75;;;;;;;19.67;38.56;100776.94;4628902;31;20062;-63
2023/12/21 08:50:03;;;;;;;6.80;4.50;;;;;;;19.70;38.84;100768.63;4628223;31;20070;-64
2023/12/21 08:52:32;;;;;;;4.07;3.05;;;;;;;19.70;39.51;100782.06;4626865;31;20090;-65
2023/12/21 08:55:00;;;;;;;4.18;3.40;;;;;;;19.69;39.37;100797.31;4628451;31;20050;-66
2023/12/21 08:57:28;;;;;;;5.47;3.90;;;;;;;19.70;39.29;100796.34;4628338;31;20062;-64
2023/12/21 08:59:55;;;;;;;6.15;4.10;;;;;;;19.73;39.01;100801.44;4627469;31;20055;-67
2023/12/21 09:02:25;;;;;;;5.65;4.35;;;;;;;19.75;38.75;100801.28;4626604;31;20068;-63
2023/12/21 09:04:52;;;;;;;6.75;4.00;;;;;;;19.75;38.63;100788.72;4630455;31;20059;-67
2023/12/21 09:07:20;;;;;;;5.45;4.20;;;;;;;19.76;38.67;100790.41;4623602;31;20067;-66
2023/12/21 09:09:47;;;;;;;4.60;3.58;;;;;;;19.78;38.56;100787.59;4629077;31;20063;-64
2023/12/21 09:12:15;;;;;;;5.93;4.18;;;;;;;19.79;38.69;100772.34;4628198;31;20060;-63
2023/12/21 09:14:42;;;;;;;5.75;3.70;;;;;;;19.79;38.73;100761.59;4625111;31;20056;-64
2023/12/21 09:17:10;;;;;;;5.22;4.35;;;;;;;19.80;38.54;100761.44;4622888;31;20428;-63
2023/12/21 09:19:37;;;;;;;5.22;4.03;;;;;;;19.81;38.80;100770.34;4631086;31;20503;-62
2023/12/21 09:22:05;;;;;;;6.03;3.83;;;;;;;19.82;38.75;100766.69;4630139;31;20059;-62
2023/12/21 09:24:32;;;;;;;5.68;4.35;;;;;;;19.83;38.75;100760.31;4631225;31;20547;-64
2023/12/21 09:26:59;;;;;;;6.10;3.85;;;;;;;19.84;38.69;100751.28;4631340;31;20059;-58
2023/12/21 09:29:27;;;;;;;6.28;4.22;;;;;;;19.84;38.68;100735.16;4629603;31;20059;-55
2023/12/21 09:31:55;;;;;;;5.63;4.18;;;;;;;19.86;38.73;100730.50;4629995;31;20059;-58
2023/12/21 09:34:22;;;;;;;5.70;3.55;;;;;;;19.84;38.80;100727.94;4631023;31;20059;-52
2023/12/21 09:36:53;;;;;;;4.93;3.75;;;;;;;19.85;38.77;100721.59;4631236;31;20055;-59
2023/12/21 09:39:20;;;;;;;6.22;3.90;;;;;;;19.87;38.98;100714.25;4629430;31;20419;-56
2023/12/21 09:41:48;;;;;;;5.30;3.90;;;;;;;19.87;38.82;100711.56;4630147;31;20052;-57
2023/12/21 09:44:30;;;;;;;4.97;4.18;;;;;;;19.87;38.45;100702.66;4631194;31;20059;-56
2023/12/21 09:47:00;;;;;;;6.28;4.60;;;;;;;19.86;38.30;100707.19;4631653;31;20059;-63
2023/12/21 09:49:28;;;;;;;6.07;4.38;;;;;;;19.86;38.07;100703.66;4628756;31;20523;-63
2023/12/21 09:51:57;;;;;;;5.30;4.38;;;;;;;19.88;37.95;100701.66;4631330;31;20055;-63
2023/12/21 09:54:24;;;;;;;5.43;4.32;;;;;;;19.85;37.85;100691.19;4630991;31;20163;-63
2023/12/21 09:56:53;;;;;;;5.88;4.40;;;;;;;19.85;37.99;100680.44;4630355;31;20072;-63
2023/12/21 09:59:21;;;;;;;5.72;4.30;;;;;;;19.84;37.86;100668.84;4628871;31;20408;-61
2023/12/21 10:01:50;;;;;;;5.80;4.50;;;;;;;19.85;38.06;100688.50;4630763;31;20047;-60
2023/12/21 10:04:19;;;;;;;5.82;4.07;;;;;;;19.86;38.03;100674.09;4630861;31;20069;-63
2023/12/21 10:06:46;;;;;;;5.30;4.18;;;;;;;19.84;38.14;100676.91;4629849;31;20059;-62
2023/12/21 10:09:15;;;;;;;7.53;3.78;;;;;;;19.84;38.05;100665.31;4629124;31;20052;-63
2023/12/21 10:11:46;;;;;;;5.82;4.13;;;;;;;19.84;37.94;100650.03;4630925;31;20055;-63
2023/12/21 10:14:19;;;;;;;4.88;3.40;;;;;;;19.83;37.86;100650.19;4631116;31;20055;-61
2023/12/21 10:16:47;;;;;;;4.25;3.60;;;;;;;19.82;37.78;100640.44;4624610;31;20063;-58
2023/12/21 10:19:16;;;;;;;6.93;4.20;;;;;;;19.83;37.77;100631.38;4630398;31;20539;-60
2023/12/21 10:21:46;;;;;;;4.03;3.20;;;;;;;19.82;37.59;100616.25;4630787;31;20055;-56
2023/12/21 10:24:13;;;;;;;6.22;3.95;;;;;;;19.82;37.52;100617.09;4630689;31;20413;-56
2023/12/21 10:26:44;;;;;;;6.80;4.25;;;;;;;19.82;37.41;100621.63;4620186;31;20059;-59
2023/12/21 10:29:17;;;;;;;5.85;3.58;;;;;;;19.82;37.37;100608.19;4614343;31;20059;-59
2023/12/21 10:31:46;;;;;;;4.50;3.30;;;;;;;19.82;37.46;100605.50;4630632;31;20055;-59
2023/12/21 10:34:15;;;;;;;4.72;3.72;;;;;;;19.82;37.36;100600.16;4630193;31;20062;-58
2023/12/21 10:36:44;;;;;;;4.22;3.30;;;;;;;19.83;37.25;100604.53;4628382;31;20063;-63
2023/12/21 10:39:12;;;;;;;5.50;3.65;;;;;;;19.82;37.54;100601.00;4630733;31;20084;-60
2023/12/21 10:41:44;;;;;;;4.25;3.10;;;;;;;19.83;37.70;100610.75;4630455;31;20062;-61
2023/12/21 10:44:12;;;;;;;5.68;3.67;;;;;;;19.83;37.88;100604.53;4629068;31;20527;-62
2023/12/21 10:46:43;;;;;;;4.25;2.75;;;;;;;19.85;38.14;100614.16;4628929;31;20492;-62
2023/12/21 10:49:12;;;;;;;5.43;3.22;;;;;;;19.87;38.35;100612.16;4630532;31;20059;-61
2023/12/21 10:51:43;;;;;;;6.20;3.70;;;;;;;19.88;38.43;100610.31;4630267;31;20470;-61
2023/12/21 10:54:12;;;;;;;5.70;3.60;;;;;;;19.88;38.32;100596.88;4627765;31;20420;-63
2023/12/21 10:56:44;;;;;;;4.47;3.30;;;;;;;19.85;38.48;100587.28;4630564;31;20066;-62
2023/12/21 10:59:19;;;;;;;4.70;3.05;;;;;;;19.82;38.46;100587.56;4624471;31;20500;-62
2023/12/21 11:01:48;;;;;;;5.47;2.80;;;;;;;19.80;38.52;100586.84;4629489;31;20055;-62
2023/12/21 11:04:17;;;;;;;4.20;3.03;;;;;;;19.78;38.89;100583.47;4627488;31;20492;-62
2023/12/21 11:06:47;;;;;;;4.72;2.90;;;;;;;19.79;38.80;100569.03;4629801;31;20420;-58
2023/12/21 11:09:18;;;;;;;5.72;2.92;;;;;;;19.83;38.70;100569.59;4629774;31;20103;-58
2023/12/21 11:11:46;;;;;;;5.65;4.07;;;;;;;19.83;38.81;100565.06;4619668;31;20051;-58
2023/12/21 11:14:17;;;;;;;4.20;2.80;;;;;;;19.84;38.75;100553.31;4628671;31;20059;-54
2023/12/21 11:16:49;;;;;;;5.07;3.45;;;;;;;19.87;38.77;100549.53;4629774;31;20058;-63
2023/12/21 11:19:29;;;;;;;4.85;3.38;;;;;;;19.87;38.52;100538.78;4630071;31;20085;-62
2023/12/21 11:21:57;;;;;;;5.28;3.80;;;;;;;19.88;38.56;100537.78;4626255;31;20060;-62
2023/12/21 11:24:25;;;;;;;5.07;3.35;;;;;;;19.88;38.66;100529.72;4629463;31;20062;-64
2023/12/21 11:26:53;;;;;;;4.80;3.70;;;;;;;19.87;38.83;100518.13;4629792;31;20059;-63
2023/12/21 11:29:27;;;;;;;4.60;3.60;;;;;;;19.88;38.80;100524.34;4628817;31;20059;-63